sensor_id;sensor_type;location;lat;lon;timestamp;P1;durP1;ratioP1;P2;durP2;ratioP2
29688;SDS011;16600;47.444;8.334;2023-01-04T00:02:12;26.88;;;23.35;;
29688;SDS011;16600;47.444;8.334;2023-01-04T00:04:41;26.60;;;23.85;;
29688;SDS011;16600;47.444;8.334;2023-01-04T00:07:07;30.23;;;25.65;;
29688;SDS011;16600;47.444;8.334;2023-01-04T00:11:58;31.52;;;26.40;;
29688;SDS011;16600;47.444;8.334;2023-01-04T00:14:25;30.70;;;27.05;;
29688;SDS011;16600;47.444;8.334;2023-01-04T00:16:51;30.58;;;25.55;;
29688;SDS011;16600;47.444;8.334;2023-01-04T00:19:17;34.35;;;26.52;;
29688;SDS011;16600;47.444;8.334;2023-01-04T00:21:43;27.90;;;24.77;;
29688;SDS011;16600;47.444;8.334;2023-01-04T00:26:35;31.02;;;23.30;;
29688;SDS011;16600;47.444;8.334;2023-01-04T00:29:03;30.50;;;25.33;;
29688;SDS011;16600;47.444;8.334;2023-01-04T00:31:32;28.67;;;23.52;;
29688;SDS011;16600;47.444;8.334;2023-01-04T00:34:00;24.48;;;21.88;;
29688;SDS011;16600;47.444;8.334;2023-01-04T00:36:27;29.42;;;24.38;;
29688;SDS011;16600;47.444;8.334;2023-01-04T00:38:54;32.70;;;24.60;;
29688;SDS011;16600;47.444;8.334;2023-01-04T00:41:33;25.02;;;21.65;;
29688;SDS011;16600;47.444;8.334;2023-01-04T00:44:03;33.80;;;26.45;;
29688;SDS011;16600;47.444;8.334;2023-01-04T00:46:30;25.73;;;22.70;;
29688;SDS011;16600;47.444;8.334;2023-01-04T00:48:56;28.58;;;24.10;;
29688;SDS011;16600;47.444;8.334;2023-01-04T00:51:23;28.88;;;25.08;;
29688;SDS011;16600;47.444;8.334;2023-01-04T00:56:17;27.10;;;22.85;;
29688;SDS011;16600;47.444;8.334;2023-01-04T00:58:46;27.08;;;23.00;;
29688;SDS011;16600;47.444;8.334;2023-01-04T01:01:15;36.08;;;24.73;;
29688;SDS011;16600;47.444;8.334;2023-01-04T01:03:41;29.67;;;24.48;;
29688;SDS011;16600;47.444;8.334;2023-01-04T01:06:09;34.20;;;21.95;;
29688;SDS011;16600;47.444;8.334;2023-01-04T01:08:46;32.38;;;22.83;;
29688;SDS011;16600;47.444;8.334;2023-01-04T01:11:13;28.42;;;23.35;;
29688;SDS011;16600;47.444;8.334;2023-01-04T01:13:39;26.65;;;21.88;;
29688;SDS011;16600;47.444;8.334;2023-01-04T01:16:10;23.05;;;20.58;;
29688;SDS011;16600;47.444;8.334;2023-01-04T01:18:39;27.75;;;20.58;;
29688;SDS011;16600;47.444;8.334;2023-01-04T01:21:13;30.92;;;21.90;;
29688;SDS011;16600;47.444;8.334;2023-01-04T01:23:39;26.25;;;21.92;;
29688;SDS011;16600;47.444;8.334;2023-01-04T01:26:09;34.83;;;25.92;;
29688;SDS011;16600;47.444;8.334;2023-01-04T01:28:36;27.35;;;18.52;;
29688;SDS011;16600;47.444;8.334;2023-01-04T01:31:06;20.88;;;16.63;;
29688;SDS011;16600;47.444;8.334;2023-01-04T01:33:36;18.45;;;14.80;;
29688;SDS011;16600;47.444;8.334;2023-01-04T01:36:02;16.35;;;14.65;;
29688;SDS011;16600;47.444;8.334;2023-01-04T01:38:29;16.08;;;14.40;;
29688;SDS011;16600;47.444;8.334;2023-01-04T01:40:58;18.50;;;14.85;;
29688;SDS011;16600;47.444;8.334;2023-01-04T01:46:09;18.05;;;14.63;;
29688;SDS011;16600;47.444;8.334;2023-01-04T01:48:35;17.27;;;15.32;;
29688;SDS011;16600;47.444;8.334;2023-01-04T01:51:02;17.92;;;14.13;;
29688;SDS011;16600;47.444;8.334;2023-01-04T01:53:29;16.23;;;13.27;;
29688;SDS011;16600;47.444;8.334;2023-01-04T01:55:57;15.13;;;13.63;;
29688;SDS011;16600;47.444;8.334;2023-01-04T01:58:28;15.20;;;13.57;;
29688;SDS011;16600;47.444;8.334;2023-01-04T02:00:56;15.15;;;13.55;;
29688;SDS011;16600;47.444;8.334;2023-01-04T02:03:22;16.67;;;14.55;;
29688;SDS011;16600;47.444;8.334;2023-01-04T02:05:52;15.63;;;13.57;;
29688;SDS011;16600;47.444;8.334;2023-01-04T02:08:19;16.73;;;15.02;;
29688;SDS011;16600;47.444;8.334;2023-01-04T02:10:49;17.33;;;15.02;;
29688;SDS011;16600;47.444;8.334;2023-01-04T02:13:20;16.92;;;15.13;;
29688;SDS011;16600;47.444;8.334;2023-01-04T02:16:08;21.23;;;16.58;;
29688;SDS011;16600;47.444;8.334;2023-01-04T02:18:39;19.75;;;17.35;;
29688;SDS011;16600;47.444;8.334;2023-01-04T02:21:08;19.67;;;17.67;;
29688;SDS011;16600;47.444;8.334;2023-01-04T02:34:04;21.10;;;17.92;;
29688;SDS011;16600;47.444;8.334;2023-01-04T02:36:33;23.40;;;18.55;;
29688;SDS011;16600;47.444;8.334;2023-01-04T02:39:04;27.08;;;18.38;;
29688;SDS011;16600;47.444;8.334;2023-01-04T02:41:36;21.65;;;17.13;;
29688;SDS011;16600;47.444;8.334;2023-01-04T02:44:20;17.58;;;15.07;;
29688;SDS011;16600;47.444;8.334;2023-01-04T02:47:12;19.98;;;15.85;;
29688;SDS011;16600;47.444;8.334;2023-01-04T02:49:39;19.63;;;16.25;;
29688;SDS011;16600;47.444;8.334;2023-01-04T02:52:23;22.92;;;17.42;;
29688;SDS011;16600;47.444;8.334;2023-01-04T02:54:51;17.83;;;16.00;;
29688;SDS011;16600;47.444;8.334;2023-01-04T03:00:06;19.20;;;16.65;;
29688;SDS011;16600;47.444;8.334;2023-01-04T03:08:29;18.50;;;16.60;;
29688;SDS011;16600;47.444;8.334;2023-01-04T03:13:29;19.98;;;15.73;;
29688;SDS011;16600;47.444;8.334;2023-01-04T03:16:06;19.65;;;16.65;;
29688;SDS011;16600;47.444;8.334;2023-01-04T03:18:37;18.60;;;16.67;;
29688;SDS011;16600;47.444;8.334;2023-01-04T03:21:06;16.08;;;14.43;;
29688;SDS011;16600;47.444;8.334;2023-01-04T03:23:34;18.88;;;15.80;;
29688;SDS011;16600;47.444;8.334;2023-01-04T03:26:20;25.73;;;15.80;;
29688;SDS011;16600;47.444;8.334;2023-01-04T03:29:07;16.35;;;14.68;;
29688;SDS011;16600;47.444;8.334;2023-01-04T03:31:57;19.30;;;15.90;;
29688;SDS011;16600;47.444;8.334;2023-01-04T03:34:46;18.77;;;16.65;;
29688;SDS011;16600;47.444;8.334;2023-01-04T03:45:49;18.65;;;15.95;;
29688;SDS011;16600;47.444;8.334;2023-01-04T03:48:38;17.40;;;15.57;;
29688;SDS011;16600;47.444;8.334;2023-01-04T03:51:09;16.85;;;15.00;;
29688;SDS011;16600;47.444;8.334;2023-01-04T03:53:42;17.67;;;15.73;;
29688;SDS011;16600;47.444;8.334;2023-01-04T03:56:10;20.80;;;15.77;;
29688;SDS011;16600;47.444;8.334;2023-01-04T03:58:37;22.83;;;15.52;;
29688;SDS011;16600;47.444;8.334;2023-01-04T04:01:04;17.95;;;15.60;;
29688;SDS011;16600;47.444;8.334;2023-01-04T04:03:31;24.10;;;15.77;;
29688;SDS011;16600;47.444;8.334;2023-01-04T04:06:15;16.65;;;14.95;;
29688;SDS011;16600;47.444;8.334;2023-01-04T04:09:00;21.13;;;14.30;;
29688;SDS011;16600;47.444;8.334;2023-01-04T04:11:26;21.80;;;16.10;;
29688;SDS011;16600;47.444;8.334;2023-01-04T04:13:55;20.15;;;16.73;;
29688;SDS011;16600;47.444;8.334;2023-01-04T04:16:24;17.50;;;15.55;;
29688;SDS011;16600;47.444;8.334;2023-01-04T04:18:50;22.73;;;14.90;;
29688;SDS011;16600;47.444;8.334;2023-01-04T04:23:41;17.13;;;14.02;;
29688;SDS011;16600;47.444;8.334;2023-01-04T04:26:08;16.17;;;14.45;;
29688;SDS011;16600;47.444;8.334;2023-01-04T04:28:34;22.27;;;14.70;;
29688;SDS011;16600;47.444;8.334;2023-01-04T04:31:01;21.10;;;14.60;;
29688;SDS011;16600;47.444;8.334;2023-01-04T04:33:35;16.55;;;14.75;;
29688;SDS011;16600;47.444;8.334;2023-01-04T04:36:02;19.10;;;14.88;;
29688;SDS011;16600;47.444;8.334;2023-01-04T04:38:31;14.50;;;12.90;;
29688;SDS011;16600;47.444;8.334;2023-01-04T04:40:57;16.85;;;14.07;;
29688;SDS011;16600;47.444;8.334;2023-01-04T04:43:42;18.98;;;14.25;;
29688;SDS011;16600;47.444;8.334;2023-01-04T04:46:13;15.55;;;13.90;;
29688;SDS011;16600;47.444;8.334;2023-01-04T04:48:40;16.13;;;14.48;;
29688;SDS011;16600;47.444;8.334;2023-01-04T04:51:09;16.25;;;13.60;;
29688;SDS011;16600;47.444;8.334;2023-01-04T04:56:00;14.68;;;13.18;;
29688;SDS011;16600;47.444;8.334;2023-01-04T04:58:29;14.30;;;12.65;;
29688;SDS011;16600;47.444;8.334;2023-01-04T05:03:02;17.30;;;13.47;;
29688;SDS011;16600;47.444;8.334;2023-01-04T05:05:29;15.63;;;13.60;;
29688;SDS011;16600;47.444;8.334;2023-01-04T05:07:56;15.70;;;12.95;;
29688;SDS011;16600;47.444;8.334;2023-01-04T05:10:31;19.05;;;14.10;;
29688;SDS011;16600;47.444;8.334;2023-01-04T05:13:00;18.48;;;14.02;;
29688;SDS011;16600;47.444;8.334;2023-01-04T05:15:30;18.17;;;14.98;;
29688;SDS011;16600;47.444;8.334;2023-01-04T05:17:57;15.80;;;14.13;;
29688;SDS011;16600;47.444;8.334;2023-01-04T05:20:29;16.67;;;13.30;;
29688;SDS011;16600;47.444;8.334;2023-01-04T05:22:55;16.00;;;14.30;;
29688;SDS011;16600;47.444;8.334;2023-01-04T05:25:24;17.90;;;14.15;;
29688;SDS011;16600;47.444;8.334;2023-01-04T05:27:51;15.82;;;13.65;;
29688;SDS011;16600;47.444;8.334;2023-01-04T05:30:17;18.52;;;14.50;;
29688;SDS011;16600;47.444;8.334;2023-01-04T05:33:02;18.20;;;14.80;;
29688;SDS011;16600;47.444;8.334;2023-01-04T05:35:29;17.30;;;15.43;;
29688;SDS011;16600;47.444;8.334;2023-01-04T05:37:56;19.13;;;15.40;;
29688;SDS011;16600;47.444;8.334;2023-01-04T05:40:25;17.95;;;16.08;;
29688;SDS011;16600;47.444;8.334;2023-01-04T05:42:54;17.15;;;15.38;;
29688;SDS011;16600;47.444;8.334;2023-01-04T05:45:21;20.25;;;15.15;;
29688;SDS011;16600;47.444;8.334;2023-01-04T05:47:50;18.05;;;15.60;;
29688;SDS011;16600;47.444;8.334;2023-01-04T05:50:17;19.75;;;17.08;;
29688;SDS011;16600;47.444;8.334;2023-01-04T05:52:44;21.10;;;16.27;;
29688;SDS011;16600;47.444;8.334;2023-01-04T05:57:36;21.10;;;14.73;;
29688;SDS011;16600;47.444;8.334;2023-01-04T06:00:06;17.70;;;15.63;;
29688;SDS011;16600;47.444;8.334;2023-01-04T06:02:41;17.70;;;14.85;;
29688;SDS011;16600;47.444;8.334;2023-01-04T06:05:10;16.35;;;14.35;;
29688;SDS011;16600;47.444;8.334;2023-01-04T06:07:37;19.17;;;14.50;;
29688;SDS011;16600;47.444;8.334;2023-01-04T06:10:07;17.92;;;14.98;;
29688;SDS011;16600;47.444;8.334;2023-01-04T06:12:36;18.13;;;15.20;;
29688;SDS011;16600;47.444;8.334;2023-01-04T06:15:06;18.40;;;15.05;;
29688;SDS011;16600;47.444;8.334;2023-01-04T06:17:32;18.92;;;14.02;;
29688;SDS011;16600;47.444;8.334;2023-01-04T06:19:58;16.95;;;14.57;;
29688;SDS011;16600;47.444;8.334;2023-01-04T06:22:27;15.23;;;13.70;;
29688;SDS011;16600;47.444;8.334;2023-01-04T06:24:53;14.93;;;13.32;;
29688;SDS011;16600;47.444;8.334;2023-01-04T06:29:45;18.02;;;13.55;;
29688;SDS011;16600;47.444;8.334;2023-01-04T06:34:36;15.13;;;13.40;;
29688;SDS011;16600;47.444;8.334;2023-01-04T06:37:05;16.80;;;13.45;;
29688;SDS011;16600;47.444;8.334;2023-01-04T06:41:56;13.45;;;12.05;;
29688;SDS011;16600;47.444;8.334;2023-01-04T06:46:51;13.48;;;12.00;;
29688;SDS011;16600;47.444;8.334;2023-01-04T06:49:17;14.25;;;12.50;;
29688;SDS011;16600;47.444;8.334;2023-01-04T06:51:43;19.65;;;12.85;;
29688;SDS011;16600;47.444;8.334;2023-01-04T06:54:09;16.70;;;13.65;;
29688;SDS011;16600;47.444;8.334;2023-01-04T06:56:39;20.92;;;13.18;;
29688;SDS011;16600;47.444;8.334;2023-01-04T06:59:05;15.95;;;13.70;;
29688;SDS011;16600;47.444;8.334;2023-01-04T07:01:31;21.65;;;12.82;;
29688;SDS011;16600;47.444;8.334;2023-01-04T07:03:57;15.02;;;11.88;;
29688;SDS011;16600;47.444;8.334;2023-01-04T07:06:23;16.10;;;12.93;;
29688;SDS011;16600;47.444;8.334;2023-01-04T07:08:53;17.80;;;12.45;;
29688;SDS011;16600;47.444;8.334;2023-01-04T07:11:19;14.05;;;12.35;;
29688;SDS011;16600;47.444;8.334;2023-01-04T07:13:45;14.80;;;12.85;;
29688;SDS011;16600;47.444;8.334;2023-01-04T07:16:17;13.50;;;11.57;;
29688;SDS011;16600;47.444;8.334;2023-01-04T07:18:43;17.63;;;11.88;;
29688;SDS011;16600;47.444;8.334;2023-01-04T07:21:09;18.70;;;12.90;;
29688;SDS011;16600;47.444;8.334;2023-01-04T07:23:35;12.75;;;11.32;;
29688;SDS011;16600;47.444;8.334;2023-01-04T07:26:02;14.35;;;12.45;;
29688;SDS011;16600;47.444;8.334;2023-01-04T07:28:31;16.48;;;12.60;;
29688;SDS011;16600;47.444;8.334;2023-01-04T07:31:15;13.65;;;12.27;;
29688;SDS011;16600;47.444;8.334;2023-01-04T07:36:09;13.13;;;11.70;;
29688;SDS011;16600;47.444;8.334;2023-01-04T07:38:39;14.05;;;11.52;;
29688;SDS011;16600;47.444;8.334;2023-01-04T07:41:07;13.13;;;11.77;;
29688;SDS011;16600;47.444;8.334;2023-01-04T07:43:33;13.70;;;12.30;;
29688;SDS011;16600;47.444;8.334;2023-01-04T07:48:24;14.65;;;13.02;;
29688;SDS011;16600;47.444;8.334;2023-01-04T07:50:53;15.73;;;12.68;;
29688;SDS011;16600;47.444;8.334;2023-01-04T07:55:45;15.85;;;11.07;;
29688;SDS011;16600;47.444;8.334;2023-01-04T07:58:11;15.93;;;11.90;;
29688;SDS011;16600;47.444;8.334;2023-01-04T08:03:03;15.18;;;12.80;;
29688;SDS011;16600;47.444;8.334;2023-01-04T08:05:32;14.90;;;12.98;;
29688;SDS011;16600;47.444;8.334;2023-01-04T08:07:59;18.10;;;13.20;;
29688;SDS011;16600;47.444;8.334;2023-01-04T08:10:25;18.40;;;12.70;;
29688;SDS011;16600;47.444;8.334;2023-01-04T08:15:16;16.00;;;12.75;;
29688;SDS011;16600;47.444;8.334;2023-01-04T08:17:42;13.18;;;11.63;;
29688;SDS011;16600;47.444;8.334;2023-01-04T08:22:34;15.25;;;11.82;;
29688;SDS011;16600;47.444;8.334;2023-01-04T08:27:25;13.70;;;11.88;;
29688;SDS011;16600;47.444;8.334;2023-01-04T08:29:51;14.55;;;12.35;;
29688;SDS011;16600;47.444;8.334;2023-01-04T08:32:17;13.07;;;11.20;;
29688;SDS011;16600;47.444;8.334;2023-01-04T08:34:44;15.30;;;11.93;;
29688;SDS011;16600;47.444;8.334;2023-01-04T08:37:10;13.75;;;12.25;;
29688;SDS011;16600;47.444;8.334;2023-01-04T08:39:36;16.70;;;12.88;;
29688;SDS011;16600;47.444;8.334;2023-01-04T08:42:04;14.02;;;12.45;;
29688;SDS011;16600;47.444;8.334;2023-01-04T08:44:30;15.70;;;12.45;;
29688;SDS011;16600;47.444;8.334;2023-01-04T08:46:59;26.23;;;12.05;;
29688;SDS011;16600;47.444;8.334;2023-01-04T08:49:25;14.30;;;12.80;;
29688;SDS011;16600;47.444;8.334;2023-01-04T08:51:51;13.50;;;11.52;;
29688;SDS011;16600;47.444;8.334;2023-01-04T08:54:20;14.73;;;12.90;;
29688;SDS011;16600;47.444;8.334;2023-01-04T08:56:47;16.13;;;13.35;;
29688;SDS011;16600;47.444;8.334;2023-01-04T08:59:13;18.13;;;13.27;;
29688;SDS011;16600;47.444;8.334;2023-01-04T09:01:43;19.90;;;13.35;;
29688;SDS011;16600;47.444;8.334;2023-01-04T09:04:10;13.20;;;11.80;;
29688;SDS011;16600;47.444;8.334;2023-01-04T09:06:42;15.85;;;12.73;;
29688;SDS011;16600;47.444;8.334;2023-01-04T09:09:08;20.77;;;13.05;;
29688;SDS011;16600;47.444;8.334;2023-01-04T09:11:38;18.73;;;13.20;;
29688;SDS011;16600;47.444;8.334;2023-01-04T09:14:05;15.60;;;13.68;;
29688;SDS011;16600;47.444;8.334;2023-01-04T09:16:33;15.45;;;13.40;;
29688;SDS011;16600;47.444;8.334;2023-01-04T09:18:59;19.48;;;14.52;;
29688;SDS011;16600;47.444;8.334;2023-01-04T09:21:25;17.95;;;14.25;;
29688;SDS011;16600;47.444;8.334;2023-01-04T09:23:52;17.52;;;14.68;;
29688;SDS011;16600;47.444;8.334;2023-01-04T09:26:22;20.02;;;14.35;;
29688;SDS011;16600;47.444;8.334;2023-01-04T09:28:48;25.80;;;14.18;;
29688;SDS011;16600;47.444;8.334;2023-01-04T09:31:15;19.48;;;15.70;;
29688;SDS011;16600;47.444;8.334;2023-01-04T09:33:45;20.00;;;14.90;;
29688;SDS011;16600;47.444;8.334;2023-01-04T09:36:14;18.92;;;14.48;;
29688;SDS011;16600;47.444;8.334;2023-01-04T09:38:41;19.33;;;14.05;;
29688;SDS011;16600;47.444;8.334;2023-01-04T09:48:58;19.73;;;14.85;;
29688;SDS011;16600;47.444;8.334;2023-01-04T09:51:29;22.75;;;15.55;;
29688;SDS011;16600;47.444;8.334;2023-01-04T09:53:57;19.10;;;16.05;;
29688;SDS011;16600;47.444;8.334;2023-01-04T09:56:26;21.08;;;16.33;;
29688;SDS011;16600;47.444;8.334;2023-01-04T09:58:54;22.30;;;16.52;;
29688;SDS011;16600;47.444;8.334;2023-01-04T10:01:23;22.65;;;16.02;;
29688;SDS011;16600;47.444;8.334;2023-01-04T10:03:54;22.27;;;15.27;;
29688;SDS011;16600;47.444;8.334;2023-01-04T10:06:32;26.63;;;15.82;;
29688;SDS011;16600;47.444;8.334;2023-01-04T10:09:00;19.00;;;15.93;;
29688;SDS011;16600;47.444;8.334;2023-01-04T10:14:03;27.67;;;16.00;;
29688;SDS011;16600;47.444;8.334;2023-01-04T10:21:50;19.75;;;16.73;;
29688;SDS011;16600;47.444;8.334;2023-01-04T10:24:23;17.35;;;15.13;;
29688;SDS011;16600;47.444;8.334;2023-01-04T10:26:54;16.50;;;14.20;;
29688;SDS011;16600;47.444;8.334;2023-01-04T10:29:31;16.67;;;14.70;;
29688;SDS011;16600;47.444;8.334;2023-01-04T10:32:02;18.00;;;14.95;;
29688;SDS011;16600;47.444;8.334;2023-01-04T10:34:41;17.58;;;15.50;;
29688;SDS011;16600;47.444;8.334;2023-01-04T10:37:12;22.35;;;15.50;;
29688;SDS011;16600;47.444;8.334;2023-01-04T10:39:39;18.13;;;13.70;;
29688;SDS011;16600;47.444;8.334;2023-01-04T10:42:15;15.93;;;13.40;;
29688;SDS011;16600;47.444;8.334;2023-01-04T10:49:55;16.77;;;13.75;;
29688;SDS011;16600;47.444;8.334;2023-01-04T10:52:27;15.77;;;13.60;;
29688;SDS011;16600;47.444;8.334;2023-01-04T10:55:06;22.80;;;13.82;;
29688;SDS011;16600;47.444;8.334;2023-01-04T10:57:40;20.45;;;13.20;;
29688;SDS011;16600;47.444;8.334;2023-01-04T11:03:08;19.17;;;13.03;;
29688;SDS011;16600;47.444;8.334;2023-01-04T11:05:38;15.32;;;12.40;;
29688;SDS011;16600;47.444;8.334;2023-01-04T11:08:10;15.02;;;12.50;;
29688;SDS011;16600;47.444;8.334;2023-01-04T11:13:04;16.50;;;12.02;;
29688;SDS011;16600;47.444;8.334;2023-01-04T11:15:30;14.50;;;10.60;;
29688;SDS011;16600;47.444;8.334;2023-01-04T11:20:22;12.82;;;11.18;;
29688;SDS011;16600;47.444;8.334;2023-01-04T11:22:56;11.38;;;10.25;;
29688;SDS011;16600;47.444;8.334;2023-01-04T11:25:23;12.40;;;10.40;;
29688;SDS011;16600;47.444;8.334;2023-01-04T11:27:58;14.75;;;10.13;;
29688;SDS011;16600;47.444;8.334;2023-01-04T11:30:31;9.65;;;8.65;;
29688;SDS011;16600;47.444;8.334;2023-01-04T11:33:02;13.23;;;9.70;;
29688;SDS011;16600;47.444;8.334;2023-01-04T11:35:46;15.60;;;10.20;;
29688;SDS011;16600;47.444;8.334;2023-01-04T11:38:18;10.45;;;9.35;;
29688;SDS011;16600;47.444;8.334;2023-01-04T11:41:00;11.15;;;8.55;;
29688;SDS011;16600;47.444;8.334;2023-01-04T11:43:28;10.52;;;8.88;;
29688;SDS011;16600;47.444;8.334;2023-01-04T11:46:02;13.32;;;8.50;;
29688;SDS011;16600;47.444;8.334;2023-01-04T11:48:41;8.75;;;7.82;;
29688;SDS011;16600;47.444;8.334;2023-01-04T11:56:36;8.68;;;7.70;;
29688;SDS011;16600;47.444;8.334;2023-01-04T12:01:31;8.05;;;7.20;;
29688;SDS011;16600;47.444;8.334;2023-01-04T12:03:58;10.85;;;7.25;;
29688;SDS011;16600;47.444;8.334;2023-01-04T12:11:30;9.20;;;7.78;;
29688;SDS011;16600;47.444;8.334;2023-01-04T12:13:57;8.30;;;7.40;;
29688;SDS011;16600;47.444;8.334;2023-01-04T12:18:58;10.00;;;7.70;;
29688;SDS011;16600;47.444;8.334;2023-01-04T12:21:25;9.50;;;8.38;;
29688;SDS011;16600;47.444;8.334;2023-01-04T12:23:52;9.45;;;7.32;;
29688;SDS011;16600;47.444;8.334;2023-01-04T12:26:18;11.10;;;7.90;;
29688;SDS011;16600;47.444;8.334;2023-01-04T12:28:45;9.00;;;7.47;;
29688;SDS011;16600;47.444;8.334;2023-01-04T12:33:44;9.70;;;8.18;;
29688;SDS011;16600;47.444;8.334;2023-01-04T12:36:11;8.02;;;7.22;;
29688;SDS011;16600;47.444;8.334;2023-01-04T12:41:12;9.93;;;8.70;;
29688;SDS011;16600;47.444;8.334;2023-01-04T12:43:38;8.65;;;7.85;;
29688;SDS011;16600;47.444;8.334;2023-01-04T12:55:17;9.82;;;7.70;;
29688;SDS011;16600;47.444;8.334;2023-01-04T12:57:37;9.20;;;7.80;;
29688;SDS011;16600;47.444;8.334;2023-01-04T13:00:06;8.15;;;7.35;;
29688;SDS011;16600;47.444;8.334;2023-01-04T13:02:33;8.07;;;7.28;;
29688;SDS011;16600;47.444;8.334;2023-01-04T13:05:00;7.57;;;6.80;;
29688;SDS011;16600;47.444;8.334;2023-01-04T13:07:30;7.10;;;6.35;;
29688;SDS011;16600;47.444;8.334;2023-01-04T13:09:57;8.32;;;7.00;;
29688;SDS011;16600;47.444;8.334;2023-01-04T13:12:34;8.70;;;7.50;;
29688;SDS011;16600;47.444;8.334;2023-01-04T13:15:06;8.80;;;7.35;;
29688;SDS011;16600;47.444;8.334;2023-01-04T13:17:38;8.15;;;7.03;;
29688;SDS011;16600;47.444;8.334;2023-01-04T13:20:14;10.13;;;7.75;;
29688;SDS011;16600;47.444;8.334;2023-01-04T13:22:44;10.38;;;7.07;;
29688;SDS011;16600;47.444;8.334;2023-01-04T13:25:13;8.20;;;6.80;;
29688;SDS011;16600;47.444;8.334;2023-01-04T13:27:55;8.98;;;7.03;;
29688;SDS011;16600;47.444;8.334;2023-01-04T13:30:28;10.77;;;7.05;;
29688;SDS011;16600;47.444;8.334;2023-01-04T13:32:55;12.38;;;7.43;;
29688;SDS011;16600;47.444;8.334;2023-01-04T13:35:21;10.88;;;7.90;;
29688;SDS011;16600;47.444;8.334;2023-01-04T13:37:47;7.88;;;7.18;;
29688;SDS011;16600;47.444;8.334;2023-01-04T13:40:20;9.25;;;7.75;;
29688;SDS011;16600;47.444;8.334;2023-01-04T13:42:50;8.73;;;7.72;;
29688;SDS011;16600;47.444;8.334;2023-01-04T13:47:57;10.07;;;7.80;;
29688;SDS011;16600;47.444;8.334;2023-01-04T13:50:25;8.63;;;7.75;;
29688;SDS011;16600;47.444;8.334;2023-01-04T13:52:52;10.98;;;8.15;;
29688;SDS011;16600;47.444;8.334;2023-01-04T13:55:23;12.13;;;7.97;;
29688;SDS011;16600;47.444;8.334;2023-01-04T13:58:34;10.25;;;8.15;;
29688;SDS011;16600;47.444;8.334;2023-01-04T14:05:33;7.70;;;6.90;;
29688;SDS011;16600;47.444;8.334;2023-01-04T14:07:59;8.85;;;7.47;;
29688;SDS011;16600;47.444;8.334;2023-01-04T14:10:25;12.02;;;7.68;;
29688;SDS011;16600;47.444;8.334;2023-01-04T14:15:19;9.02;;;7.25;;
29688;SDS011;16600;47.444;8.334;2023-01-04T14:17:53;8.40;;;7.28;;
29688;SDS011;16600;47.444;8.334;2023-01-04T14:30:41;7.18;;;6.47;;
29688;SDS011;16600;47.444;8.334;2023-01-04T14:33:16;10.45;;;7.55;;
29688;SDS011;16600;47.444;8.334;2023-01-04T14:35:44;10.18;;;7.25;;
29688;SDS011;16600;47.444;8.334;2023-01-04T14:40:36;10.23;;;7.63;;
29688;SDS011;16600;47.444;8.334;2023-01-04T14:43:30;7.95;;;6.88;;
29688;SDS011;16600;47.444;8.334;2023-01-04T14:45:49;10.32;;;7.45;;
29688;SDS011;16600;47.444;8.334;2023-01-04T14:48:15;8.82;;;7.47;;
29688;SDS011;16600;47.444;8.334;2023-01-04T14:50:41;12.90;;;7.13;;
29688;SDS011;16600;47.444;8.334;2023-01-04T14:53:10;8.15;;;6.97;;
29688;SDS011;16600;47.444;8.334;2023-01-04T14:55:37;10.93;;;6.80;;
29688;SDS011;16600;47.444;8.334;2023-01-04T15:00:28;8.77;;;7.35;;
29688;SDS011;16600;47.444;8.334;2023-01-04T15:02:55;14.07;;;7.75;;
29688;SDS011;16600;47.444;8.334;2023-01-04T15:05:21;7.25;;;6.50;;
29688;SDS011;16600;47.444;8.334;2023-01-04T15:12:48;7.75;;;6.90;;
29688;SDS011;16600;47.444;8.334;2023-01-04T15:15:14;10.82;;;7.30;;
29688;SDS011;16600;47.444;8.334;2023-01-04T15:17:44;8.10;;;6.93;;
29688;SDS011;16600;47.444;8.334;2023-01-04T15:20:13;7.10;;;6.40;;
29688;SDS011;16600;47.444;8.334;2023-01-04T15:22:39;7.55;;;6.68;;
29688;SDS011;16600;47.444;8.334;2023-01-04T15:25:05;8.73;;;7.00;;
29688;SDS011;16600;47.444;8.334;2023-01-04T15:27:32;13.10;;;7.05;;
29688;SDS011;16600;47.444;8.334;2023-01-04T15:29:58;7.82;;;6.72;;
29688;SDS011;16600;47.444;8.334;2023-01-04T15:32:32;10.15;;;7.40;;
29688;SDS011;16600;47.444;8.334;2023-01-04T15:35:04;7.80;;;7.03;;
29688;SDS011;16600;47.444;8.334;2023-01-04T15:37:31;10.07;;;7.40;;
29688;SDS011;16600;47.444;8.334;2023-01-04T15:39:57;7.00;;;6.38;;
29688;SDS011;16600;47.444;8.334;2023-01-04T15:42:23;8.75;;;7.28;;
29688;SDS011;16600;47.444;8.334;2023-01-04T15:45:08;8.88;;;7.65;;
29688;SDS011;16600;47.444;8.334;2023-01-04T15:47:34;7.85;;;7.05;;
29688;SDS011;16600;47.444;8.334;2023-01-04T15:50:00;10.65;;;7.85;;
29688;SDS011;16600;47.444;8.334;2023-01-04T15:52:29;11.57;;;7.50;;
29688;SDS011;16600;47.444;8.334;2023-01-04T15:54:55;13.68;;;7.55;;
29688;SDS011;16600;47.444;8.334;2023-01-04T15:57:21;9.98;;;8.32;;
29688;SDS011;16600;47.444;8.334;2023-01-04T16:02:13;7.95;;;7.22;;
29688;SDS011;16600;47.444;8.334;2023-01-04T16:04:40;16.33;;;7.72;;
29688;SDS011;16600;47.444;8.334;2023-01-04T16:07:06;10.60;;;7.80;;
29688;SDS011;16600;47.444;8.334;2023-01-04T16:11:58;9.77;;;7.22;;
29688;SDS011;16600;47.444;8.334;2023-01-04T16:14:42;8.32;;;7.35;;
29688;SDS011;16600;47.444;8.334;2023-01-04T16:17:09;9.10;;;6.90;;
29688;SDS011;16600;47.444;8.334;2023-01-04T16:19:35;9.63;;;7.55;;
29688;SDS011;16600;47.444;8.334;2023-01-04T16:22:04;7.82;;;7.03;;
29688;SDS011;16600;47.444;8.334;2023-01-04T16:24:33;10.80;;;7.68;;
29688;SDS011;16600;47.444;8.334;2023-01-04T16:26:59;9.65;;;7.22;;
29688;SDS011;16600;47.444;8.334;2023-01-04T16:29:26;8.18;;;6.43;;
29688;SDS011;16600;47.444;8.334;2023-01-04T16:31:52;12.38;;;7.18;;
29688;SDS011;16600;47.444;8.334;2023-01-04T16:34:21;7.05;;;6.35;;
29688;SDS011;16600;47.444;8.334;2023-01-04T16:36:50;9.68;;;6.57;;
29688;SDS011;16600;47.444;8.334;2023-01-04T16:39:17;9.82;;;6.07;;
29688;SDS011;16600;47.444;8.334;2023-01-04T16:41:51;8.02;;;6.72;;
29688;SDS011;16600;47.444;8.334;2023-01-04T16:44:23;9.48;;;7.32;;
29688;SDS011;16600;47.444;8.334;2023-01-04T16:46:53;6.63;;;5.90;;
29688;SDS011;16600;47.444;8.334;2023-01-04T16:49:19;7.53;;;6.60;;
29688;SDS011;16600;47.444;8.334;2023-01-04T16:51:45;8.40;;;6.40;;
29688;SDS011;16600;47.444;8.334;2023-01-04T16:54:13;7.60;;;5.53;;
29688;SDS011;16600;47.444;8.334;2023-01-04T16:56:43;9.32;;;5.63;;
29688;SDS011;16600;47.444;8.334;2023-01-04T16:59:13;8.18;;;5.97;;
29688;SDS011;16600;47.444;8.334;2023-01-04T17:03:02;13.13;;;7.50;;
29688;SDS011;16600;47.444;8.334;2023-01-04T17:05:28;7.70;;;5.22;;
29688;SDS011;16600;47.444;8.334;2023-01-04T17:07:55;6.00;;;5.25;;
29688;SDS011;16600;47.444;8.334;2023-01-04T17:10:21;6.90;;;5.30;;
29688;SDS011;16600;47.444;8.334;2023-01-04T17:12:55;6.53;;;5.60;;
29688;SDS011;16600;47.444;8.334;2023-01-04T17:15:22;29.00;;;17.05;;
29688;SDS011;16600;47.444;8.334;2023-01-04T17:17:50;12.02;;;7.18;;
29688;SDS011;16600;47.444;8.334;2023-01-04T17:20:22;7.65;;;5.47;;
29688;SDS011;16600;47.444;8.334;2023-01-04T17:22:51;5.40;;;4.90;;
29688;SDS011;16600;47.444;8.334;2023-01-04T17:25:20;6.88;;;4.90;;
29688;SDS011;16600;47.444;8.334;2023-01-04T17:27:47;11.93;;;7.93;;
29688;SDS011;16600;47.444;8.334;2023-01-04T17:30:14;21.13;;;13.55;;
29688;SDS011;16600;47.444;8.334;2023-01-04T17:32:44;24.77;;;14.25;;